Time;durP1;ratioP1;P1;durP2;ratioP2;P2;SDS_P1;SDS_P2;PMS_P1;PMS_P2;Temp;Humidity;BMP_temperature;BMP_pressure;BME280_temperature;BME280_humidity;BME280_pressure;Samples;Min_cycle;Max_cycle;Signal;HPM_P1;HPM_P2
2022/11/22 00:02:03;;;;;;;2.00;1.80;;;17.40;64.20;18.40;98463.00;;;;5081092;28;20178;-52
2022/11/22 00:04:28;;;;;;;2.00;1.80;;;17.30;64.20;18.40;98460.00;;;;5071046;28;20178;-52
2022/11/22 00:06:54;;;;;;;2.00;1.80;;;17.30;64.20;18.40;98456.00;;;;5069285;28;20337;-52
2022/11/22 00:09:20;;;;;;;2.03;1.90;;;17.30;64.20;18.30;98455.00;;;;5068210;28;20174;-51
2022/11/22 00:11:45;;;;;;;2.60;2.10;;;17.30;64.20;18.40;98450.00;;;;5068709;28;20260;-54
2022/11/22 00:14:11;;;;;;;3.43;2.10;;;17.30;64.30;18.30;98463.00;;;;5069316;28;20227;-51
2022/11/22 00:16:37;;;;;;;2.00;1.70;;;17.20;64.20;18.30;98459.00;;;;5068996;28;20342;-51
2022/11/22 00:19:03;;;;;;;2.60;1.97;;;17.20;64.20;18.30;98453.00;;;;5069016;28;20203;-51
2022/11/22 00:21:28;;;;;;;2.20;2.00;;;17.20;64.20;18.30;98455.00;;;;5068830;28;20205;-51
2022/11/22 00:23:57;;;;;;;2.07;1.87;;;17.20;64.30;18.20;98449.00;;;;5068880;28;20241;-52
2022/11/22 00:26:23;;;;;;;3.60;1.90;;;17.20;64.30;18.20;98447.00;;;;5068729;28;20190;-52
2022/11/22 00:28:49;;;;;;;2.50;1.90;;;17.10;64.30;18.20;98442.00;;;;5068924;28;20170;-51
2022/11/22 00:31:15;;;;;;;2.03;1.83;;;17.10;64.30;18.20;98436.00;;;;5068964;28;20173;-52
2022/11/22 00:33:41;;;;;;;2.60;1.80;;;17.10;64.30;18.20;98436.00;;;;5068453;28;20627;-52
2022/11/22 00:36:06;;;;;;;2.10;1.90;;;17.10;64.50;18.20;98441.00;;;;5068929;28;20206;-51
2022/11/22 00:38:32;;;;;;;3.67;1.90;;;17.10;64.50;18.10;98438.00;;;;5068895;28;20197;-51
2022/11/22 00:40:58;;;;;;;1.73;1.63;;;17.10;64.50;18.10;98441.00;;;;5068825;28;20178;-51
2022/11/22 00:43:24;;;;;;;2.30;2.00;;;17.00;64.50;18.10;98434.00;;;;5068662;28;20208;-51
2022/11/22 00:45:49;;;;;;;2.23;1.90;;;17.00;64.50;18.10;98440.00;;;;5069142;28;20191;-51
2022/11/22 00:48:15;;;;;;;1.80;1.70;;;17.00;64.50;18.10;98450.00;;;;5068576;28;20640;-53
2022/11/22 00:50:41;;;;;;;2.93;2.17;;;17.00;64.50;18.10;98454.00;;;;5068519;28;20197;-51
2022/11/22 00:53:06;;;;;;;1.90;1.70;;;16.90;64.50;18.10;98442.00;;;;5068660;28;20185;-54
2022/11/22 00:55:32;;;;;;;1.90;1.70;;;16.90;64.50;18.00;98437.00;;;;5068595;28;20334;-52
2022/11/22 00:57:58;;;;;;;1.87;1.77;;;16.90;64.50;18.00;98362.00;;;;5068414;28;20642;-51
2022/11/22 01:00:23;;;;;;;1.83;1.73;;;16.90;64.50;18.00;98439.00;;;;5068656;28;20196;-51
2022/11/22 01:02:49;;;;;;;1.97;1.80;;;16.90;64.60;18.00;98435.00;;;;5068164;28;20654;-51
2022/11/22 01:05:16;;;;;;;2.20;2.00;;;16.90;64.70;18.00;98437.00;;;;5050283;28;20206;-52
2022/11/22 01:07:43;;;;;;;1.93;1.83;;;16.90;64.70;18.00;98448.00;;;;5068498;28;20630;-52
2022/11/22 01:10:09;;;;;;;1.83;1.73;;;16.80;64.60;18.00;98458.00;;;;5067753;28;20177;-52
2022/11/22 01:12:35;;;;;;;2.40;1.80;;;16.80;64.70;17.90;98449.00;;;;5049880;28;20642;-52
2022/11/22 01:15:01;;;;;;;1.87;1.77;;;16.80;65.40;17.90;98448.00;;;;5068216;28;20301;-51
2022/11/22 01:17:27;;;;;;;1.97;1.80;;;16.90;64.80;17.90;98461.00;;;;5050102;28;20318;-51
2022/11/22 01:19:52;;;;;;;1.80;1.70;;;16.80;64.70;17.90;98467.00;;;;5068633;28;20207;-52
2022/11/22 01:22:18;;;;;;;1.93;1.80;;;16.80;64.80;17.90;98453.00;;;;5068862;28;20631;-51
2022/11/22 01:24:44;;;;;;;1.90;1.80;;;16.80;64.80;17.90;98460.00;;;;5068205;28;20561;-54
2022/11/22 01:27:09;;;;;;;1.73;1.63;;;16.80;65.00;17.90;98465.00;;;;5068193;28;20182;-51
2022/11/22 01:29:35;;;;;;;2.17;1.77;;;16.70;65.00;17.60;98468.00;;;;5068176;28;20413;-52
2022/11/22 01:32:01;;;;;;;2.60;1.80;;;16.70;64.90;17.80;98470.00;;;;5068251;28;20177;-50
2022/11/22 01:34:26;;;;;;;2.10;1.80;;;16.70;65.00;17.80;98450.00;;;;5067992;28;20173;-51
2022/11/22 01:36:52;;;;;;;1.80;1.70;;;16.70;65.00;17.80;98461.00;;;;5068169;28;20212;-52
2022/11/22 01:39:18;;;;;;;1.73;1.63;;;16.70;65.10;17.80;98472.00;;;;5067690;28;20220;-50
2022/11/22 01:41:44;;;;;;;2.27;1.70;;;16.70;65.00;17.80;98465.00;;;;5067714;28;20635;-52
2022/11/22 01:44:27;;;;;;;2.97;1.97;;;16.70;65.00;17.70;98471.00;;;;5068353;28;20189;-51
2022/11/22 01:47:10;;;;;;;3.00;1.87;;;16.70;65.20;17.70;98465.00;;;;5050059;28;20169;-52
2022/11/22 01:49:54;;;;;;;1.83;1.67;;;16.60;65.10;17.70;98472.00;;;;5050884;28;20230;-53
2022/11/22 01:52:25;;;;;;;1.90;1.60;;;16.60;65.10;17.70;98485.00;;;;5051927;28;20150;-50
2022/11/22 01:54:57;;;;;;;1.77;1.43;;;16.60;65.10;17.70;98480.00;;;;5016982;28;20191;-52
2022/11/22 01:57:27;;;;;;;1.60;1.50;;;16.60;65.10;17.70;98448.00;;;;5033955;28;20154;-52
2022/11/22 01:59:57;;;;;;;1.90;1.70;;;16.60;66.00;17.70;98487.00;;;;5050180;28;20170;-52
2022/11/22 02:02:23;;;;;;;1.67;1.57;;;16.60;65.10;17.70;98487.00;;;;5067241;28;20285;-51
2022/11/22 02:04:49;;;;;;;2.00;1.80;;;16.60;65.10;17.70;98496.00;;;;5033289;28;20189;-51
2022/11/22 02:07:31;;;;;;;1.70;1.60;;;16.60;65.10;17.70;98489.00;;;;5068157;28;20228;-53
2022/11/22 02:09:57;;;;;;;2.27;1.77;;;16.50;65.00;17.70;98480.00;;;;5034308;28;20161;-52
2022/11/22 02:12:26;;;;;;;1.80;1.70;;;16.50;65.10;17.70;98492.00;;;;5067575;28;20186;-50
2022/11/22 02:14:52;;;;;;;1.83;1.73;;;16.50;65.20;17.70;98508.00;;;;5033559;28;20190;-51
2022/11/22 02:17:18;;;;;;;1.53;1.43;;;16.40;65.20;17.70;98505.00;;;;5033033;28;20174;-50
2022/11/22 02:19:46;;;;;;;2.13;1.73;;;16.40;65.20;17.70;98503.00;;;;5067482;28;20655;-52
2022/11/22 02:22:35;;;;;;;1.90;1.80;;;16.40;65.40;17.60;98520.00;;;;5013801;28;20218;-52
2022/11/22 02:25:32;;;;;;;1.80;1.70;;;16.40;65.40;17.60;98508.00;;;;5017918;28;20285;-50
2022/11/22 02:27:58;;;;;;;1.53;1.43;;;16.40;65.50;17.60;98530.00;;;;5045915;28;20163;-53
2022/11/22 02:30:24;;;;;;;1.70;1.60;;;16.30;65.40;17.60;98519.00;;;;5047296;28;20662;-54
2022/11/22 02:32:49;;;;;;;1.67;1.57;;;16.30;65.40;17.60;98517.00;;;;5049471;28;20173;-54
2022/11/22 02:35:24;;;;;;;1.60;1.50;;;16.30;65.40;17.60;98519.00;;;;5051148;28;20189;-52
2022/11/22 02:37:59;;;;;;;1.67;1.57;;;16.30;65.40;17.60;98512.00;;;;5050059;28;20177;-53
2022/11/22 02:40:26;;;;;;;1.70;1.60;;;16.30;65.40;17.60;98519.00;;;;5049682;28;20162;-51
2022/11/22 02:43:02;;;;;;;1.70;1.60;;;16.30;65.40;17.60;98520.00;;;;5032415;28;20670;-52
2022/11/22 02:45:28;;;;;;;1.80;1.70;;;16.30;65.40;17.60;98523.00;;;;5033590;28;20186;-53
2022/11/22 02:48:04;;;;;;;2.10;1.80;;;16.20;65.40;17.60;98521.00;;;;5050773;28;20253;-51
2022/11/22 02:50:29;;;;;;;1.57;1.47;;;16.20;65.40;17.50;98530.00;;;;5049733;28;20150;-52
2022/11/22 02:52:55;;;;;;;1.77;1.67;;;16.20;65.30;17.50;98527.00;;;;5050593;28;20166;-50
2022/11/22 02:55:21;;;;;;;1.70;1.60;;;16.20;65.30;17.50;98538.00;;;;5050603;28;20208;-51
2022/11/22 02:57:46;;;;;;;1.60;1.50;;;16.20;65.40;17.50;98544.00;;;;5050924;28;20186;-51
2022/11/22 03:00:13;;;;;;;1.60;1.50;;;16.20;65.30;17.50;98525.00;;;;5050386;28;20582;-51
2022/11/22 03:02:38;;;;;;;1.70;1.60;;;16.20;65.30;17.50;98526.00;;;;5050162;28;20202;-52
2022/11/22 03:05:04;;;;;;;1.70;1.60;;;16.20;65.30;17.50;98520.00;;;;5050405;28;20193;-53
2022/11/22 03:07:30;;;;;;;1.87;1.57;;;16.20;65.30;17.50;98516.00;;;;5050457;28;20493;-52
2022/11/22 03:09:56;;;;;;;1.77;1.67;;;16.20;65.30;17.50;98525.00;;;;5048876;28;20619;-52
2022/11/22 03:12:21;;;;;;;1.40;1.30;;;16.20;65.40;17.50;98529.00;;;;5050269;28;20175;-50
2022/11/22 03:14:47;;;;;;;1.40;1.30;;;16.10;65.40;17.50;98523.00;;;;5050437;28;20190;-51
2022/11/22 03:17:13;;;;;;;1.60;1.50;;;16.10;65.40;17.40;98513.00;;;;5032301;28;20198;-51
2022/11/22 03:19:38;;;;;;;1.60;1.50;;;16.10;65.30;17.40;98534.00;;;;5050591;28;20251;-53
2022/11/22 03:22:04;;;;;;;1.70;1.60;;;16.10;65.40;17.40;98536.00;;;;5049743;28;20640;-51
2022/11/22 03:24:30;;;;;;;2.03;1.43;;;16.10;65.30;17.40;98531.00;;;;5049684;28;20198;-51
2022/11/22 03:26:55;;;;;;;1.60;1.50;;;16.10;65.70;17.40;98541.00;;;;5049882;28;20175;-50
2022/11/22 03:29:21;;;;;;;1.50;1.40;;;16.10;65.40;17.40;98543.00;;;;5048685;28;20167;-51
2022/11/22 03:31:47;;;;;;;1.70;1.30;;;16.10;65.40;17.40;98561.00;;;;5049694;28;20402;-52
2022/11/22 03:34:13;;;;;;;2.30;1.50;;;16.10;65.40;17.40;98556.00;;;;5049802;28;20648;-52
2022/11/22 03:36:38;;;;;;;1.70;1.60;;;16.10;65.40;17.40;98553.00;;;;5050268;28;20276;-51
2022/11/22 03:39:04;;;;;;;1.60;1.40;;;16.00;65.60;17.30;98559.00;;;;5049965;28;20170;-52
2022/11/22 03:41:30;;;;;;;1.97;1.63;;;16.00;65.50;17.30;98569.00;;;;5049771;28;20174;-52
2022/11/22 03:43:55;;;;;;;1.43;1.33;;;16.00;65.40;17.30;98567.00;;;;5049303;28;20190;-51
2022/11/22 03:46:21;;;;;;;1.57;1.47;;;16.00;65.60;17.30;98571.00;;;;5049767;28;20194;-52
2022/11/22 03:48:47;;;;;;;1.60;1.50;;;16.00;65.50;17.30;98565.00;;;;5049686;28;20178;-50
2022/11/22 03:51:13;;;;;;;1.50;1.40;;;16.00;65.40;17.10;98574.00;;;;5049610;28;20256;-51
2022/11/22 03:53:38;;;;;;;1.60;1.50;;;16.00;65.30;17.30;98580.00;;;;5049467;28;20589;-53
2022/11/22 03:56:04;;;;;;;1.90;1.47;;;16.00;65.40;17.30;98595.00;;;;5049176;28;20276;-52
2022/11/22 03:58:30;;;;;;;2.67;1.57;;;16.00;65.20;17.30;98594.00;;;;5049658;28;20541;-50
2022/11/22 04:00:56;;;;;;;1.90;1.47;;;16.00;65.20;17.30;98601.00;;;;5049264;28;20174;-53
2022/11/22 04:03:22;;;;;;;1.53;1.43;;;16.00;65.10;17.30;98593.00;;;;5031178;28;20187;-52
2022/11/22 04:05:47;;;;;;;2.23;1.70;;;16.00;65.20;17.30;98597.00;;;;5049073;28;20183;-51
2022/11/22 04:08:13;;;;;;;1.60;1.50;;;16.00;65.20;17.20;98588.00;;;;5049659;28;20517;-51
2022/11/22 04:10:39;;;;;;;1.37;1.27;;;16.00;65.20;17.20;98579.00;;;;5049453;28;20178;-51
2022/11/22 04:13:05;;;;;;;3.37;1.33;;;16.00;65.10;17.20;98589.00;;;;5049327;28;20202;-51
2022/11/22 04:15:30;;;;;;;2.07;1.53;;;15.90;65.00;17.20;98587.00;;;;5048652;28;20198;-51
2022/11/22 04:17:56;;;;;;;1.67;1.50;;;16.00;65.10;17.20;98585.00;;;;5047836;28;20266;-52
2022/11/22 04:23:14;;;;;;;2.03;1.40;;;15.90;65.00;17.20;98593.00;;;;5048004;28;20252;-51
2022/11/22 04:25:43;;;;;;;1.40;1.30;;;15.90;65.00;17.20;98596.00;;;;5048814;28;20578;-53
2022/11/22 04:28:10;;;;;;;1.93;1.40;;;15.90;65.00;17.20;98596.00;;;;5031238;28;20173;-52
2022/11/22 04:33:19;;;;;;;2.33;1.60;;;15.90;65.80;17.10;98593.00;;;;5048641;28;20536;-53
2022/11/22 04:35:46;;;;;;;3.27;1.70;;;15.90;65.50;17.10;98600.00;;;;5048775;28;20190;-51
2022/11/22 04:38:12;;;;;;;1.73;1.33;;;15.90;65.30;17.10;98604.00;;;;5047489;28;20374;-52
2022/11/22 04:40:38;;;;;;;3.43;1.50;;;15.90;65.40;17.10;98603.00;;;;5030945;28;20463;-51
2022/11/22 04:45:49;;;;;;;1.43;1.33;;;15.90;65.20;17.10;98605.00;;;;5067977;28;20208;-55
2022/11/22 04:48:14;;;;;;;4.77;1.80;;;15.90;65.10;17.00;98591.00;;;;5068664;28;20180;-52
2022/11/22 04:53:25;;;;;;;4.07;1.70;;;15.90;65.00;17.00;98594.00;;;;5068693;28;20272;-53
2022/11/22 04:55:51;;;;;;;2.03;1.40;;;15.90;65.00;17.00;98603.00;;;;5067951;28;20186;-52
2022/11/22 04:58:17;;;;;;;2.17;1.60;;;15.90;65.00;17.00;98599.00;;;;5050622;28;20514;-53
2022/11/22 05:00:42;;;;;;;1.60;1.50;;;15.80;64.90;17.00;98603.00;;;;5068565;28;20181;-50
2022/11/22 05:03:08;;;;;;;2.73;1.50;;;15.80;64.90;16.70;98610.00;;;;5067390;28;20445;-52
2022/11/22 05:05:35;;;;;;;2.23;1.60;;;15.80;65.00;16.90;98599.00;;;;5068505;28;20209;-52
2022/11/22 05:08:01;;;;;;;2.47;1.70;;;15.80;64.90;16.70;98593.00;;;;5050589;28;20193;-52
2022/11/22 05:10:27;;;;;;;3.80;1.70;;;15.80;64.90;16.90;98602.00;;;;5059823;28;20183;-54
2022/11/22 05:12:53;;;;;;;2.13;1.80;;;15.70;64.70;16.90;98568.00;;;;5048770;28;20177;-51
2022/11/22 05:15:19;;;;;;;2.67;1.57;;;15.80;64.60;16.90;98599.00;;;;5030437;28;20187;-53
2022/11/22 05:17:45;;;;;;;6.10;1.70;;;15.80;64.60;16.90;98603.00;;;;5048485;28;20388;-50
2022/11/22 05:20:11;;;;;;;5.47;2.00;;;15.70;64.50;16.90;98604.00;;;;5048196;28;20166;-52
2022/11/22 05:25:20;;;;;;;5.60;1.90;;;15.70;64.60;16.90;98612.00;;;;5048523;28;20628;-50
2022/11/22 05:27:46;;;;;;;5.13;1.90;;;15.70;64.70;16.90;98608.00;;;;5048368;28;20242;-52
2022/11/22 05:30:12;;;;;;;5.70;1.93;;;15.70;64.70;16.90;98623.00;;;;5048885;28;20151;-52
2022/11/22 05:32:38;;;;;;;6.97;2.17;;;15.70;64.80;16.90;98621.00;;;;5048119;28;20389;-52
2022/11/22 05:35:04;;;;;;;9.93;2.80;;;15.70;64.80;16.80;98624.00;;;;5048192;28;20190;-54
2022/11/22 05:37:30;;;;;;;12.03;2.90;;;15.70;64.80;16.80;98623.00;;;;5029825;28;20423;-54
2022/11/22 05:39:55;;;;;;;10.77;2.90;;;15.70;64.80;16.60;98632.00;;;;5048695;28;20411;-51
2022/11/22 05:42:21;;;;;;;12.17;3.70;;;15.70;64.80;16.80;98634.00;;;;5048664;28;20175;-51
2022/11/22 05:44:47;;;;;;;9.43;3.07;;;15.60;64.70;16.80;98638.00;;;;5048344;28;20194;-52
2022/11/22 05:47:12;;;;;;;11.13;2.97;;;15.60;64.70;16.80;98640.00;;;;5048622;28;20175;-51
2022/11/22 05:49:39;;;;;;;13.67;2.87;;;15.60;64.70;16.80;98648.00;;;;5047783;28;20150;-51
2022/11/22 05:52:04;;;;;;;9.67;2.90;;;15.60;64.70;16.80;98644.00;;;;5048077;28;20175;-53
2022/11/22 05:54:30;;;;;;;8.77;2.50;;;15.60;64.70;16.80;98651.00;;;;5047869;28;20237;-53
2022/11/22 05:56:56;;;;;;;10.40;3.03;;;15.60;64.90;16.80;98645.00;;;;5048067;28;20562;-52
2022/11/22 05:59:21;;;;;;;8.37;2.70;;;15.60;64.90;16.70;98649.00;;;;5048174;28;20202;-52
2022/11/22 06:01:47;;;;;;;13.10;2.93;;;15.60;64.90;16.80;98657.00;;;;5046756;28;20177;-51
2022/11/22 06:04:13;;;;;;;8.87;2.90;;;15.50;65.10;16.70;98653.00;;;;5047465;28;20326;-51
2022/11/22 06:06:38;;;;;;;14.67;3.00;;;15.60;65.20;16.70;98655.00;;;;5048471;28;20228;-53
2022/11/22 06:09:04;;;;;;;11.87;3.10;;;15.60;65.20;16.70;98664.00;;;;5051846;28;20167;-55
2022/11/22 06:11:30;;;;;;;8.17;2.70;;;15.50;65.10;16.70;98662.00;;;;5051804;28;20170;-52
2022/11/22 06:14:02;;;;;;;9.20;2.73;;;15.60;65.20;16.70;98658.00;;;;5051745;28;20189;-52
2022/11/22 06:16:27;;;;;;;5.60;2.40;;;15.50;65.10;16.70;98664.00;;;;5051168;28;20202;-51
2022/11/22 06:18:53;;;;;;;8.50;2.67;;;15.60;65.10;16.70;98662.00;;;;5033909;28;20228;-52
2022/11/22 06:21:23;;;;;;;6.60;2.53;;;15.50;65.10;16.70;98670.00;;;;5051666;28;20673;-51
2022/11/22 06:23:50;;;;;;;10.27;2.90;;;15.50;65.00;16.70;98652.00;;;;5051492;28;20713;-52
2022/11/22 06:26:17;;;;;;;7.00;2.80;;;15.50;65.00;16.70;98675.00;;;;5016505;28;20556;-51
2022/11/22 06:28:43;;;;;;;9.13;3.10;;;15.50;65.10;16.60;98670.00;;;;5032307;28;20166;-54
2022/11/22 06:31:17;;;;;;;6.17;2.50;;;15.50;65.00;16.60;98665.00;;;;5049938;28;20171;-54
2022/11/22 06:33:42;;;;;;;7.00;2.50;;;15.50;65.00;16.60;98668.00;;;;5051279;28;20562;-50
2022/11/22 06:36:13;;;;;;;4.67;2.27;;;15.50;65.00;16.60;98660.00;;;;5050963;28;20190;-51
2022/11/22 06:38:39;;;;;;;6.70;2.67;;;15.40;64.90;16.60;98664.00;;;;5034248;28;20190;-51
2022/11/22 06:41:10;;;;;;;5.10;2.50;;;15.40;64.90;16.60;98669.00;;;;5034033;28;20681;-50
2022/11/22 06:43:37;;;;;;;4.97;2.20;;;15.40;64.90;16.60;98656.00;;;;5051293;28;20210;-51
2022/11/22 06:46:03;;;;;;;4.83;2.60;;;15.40;65.00;16.60;98667.00;;;;5033789;28;20225;-52
2022/11/22 06:48:29;;;;;;;5.53;2.20;;;15.40;64.90;16.50;98666.00;;;;5033680;28;20185;-51
2022/11/22 06:51:09;;;;;;;5.47;2.30;;;15.40;64.90;16.50;98667.00;;;;5051638;28;20175;-50
2022/11/22 06:53:35;;;;;;;6.53;2.20;;;15.40;64.90;16.50;98671.00;;;;5018507;28;20179;-51
2022/11/22 06:56:06;;;;;;;5.53;2.50;;;15.40;64.90;16.50;98687.00;;;;5051262;28;20589;-51
2022/11/22 06:58:32;;;;;;;3.63;2.23;;;15.40;64.90;16.50;98681.00;;;;5033639;28;20647;-51
2022/11/22 07:01:04;;;;;;;3.97;2.23;;;15.30;64.80;16.50;98684.00;;;;5051771;28;20170;-51
2022/11/22 07:03:29;;;;;;;3.63;2.00;;;15.30;64.90;16.50;98619.00;;;;5050898;28;20220;-49
2022/11/22 07:05:55;;;;;;;5.07;2.30;;;15.30;64.80;16.50;98697.00;;;;5051443;28;20182;-53
2022/11/22 07:08:21;;;;;;;3.37;2.00;;;15.30;64.80;16.40;98696.00;;;;5051602;28;20460;-51
2022/11/22 07:10:47;;;;;;;5.03;2.40;;;15.30;64.80;16.40;98688.00;;;;5051414;28;20635;-53
2022/11/22 07:13:13;;;;;;;5.20;2.53;;;15.30;64.80;16.40;98691.00;;;;5051043;28;20202;-51
2022/11/22 07:15:39;;;;;;;3.30;2.07;;;15.30;64.80;16.40;98689.00;;;;5051643;28;20190;-50
2022/11/22 07:18:04;;;;;;;3.07;2.03;;;15.30;64.80;16.40;98700.00;;;;5050555;28;20666;-51
2022/11/22 07:20:30;;;;;;;4.53;2.40;;;15.30;64.80;16.40;98699.00;;;;5051132;28;20245;-54
2022/11/22 07:22:56;;;;;;;4.40;2.30;;;15.20;64.70;16.40;98698.00;;;;5051147;28;20659;-50
2022/11/22 07:25:21;;;;;;;4.97;2.17;;;15.20;64.70;16.40;98702.00;;;;5051408;28;20194;-51
2022/11/22 07:27:47;;;;;;;4.10;2.20;;;15.20;64.70;16.40;98704.00;;;;5051147;28;20194;-51
2022/11/22 07:30:14;;;;;;;3.93;1.90;;;15.20;64.70;16.30;98692.00;;;;5051148;28;20550;-51
2022/11/22 07:32:39;;;;;;;3.37;2.10;;;15.20;64.80;16.30;98693.00;;;;5050955;28;20213;-51
2022/11/22 07:35:05;;;;;;;3.03;2.00;;;15.20;64.70;16.30;98695.00;;;;5050910;28;20467;-50
2022/11/22 07:37:31;;;;;;;4.33;2.20;;;15.20;64.70;16.30;98699.00;;;;5050790;28;20190;-52
2022/11/22 07:39:57;;;;;;;3.37;2.10;;;15.20;64.70;16.30;98706.00;;;;5050240;28;20175;-53
2022/11/22 07:42:23;;;;;;;3.97;2.20;;;15.10;64.60;16.30;98709.00;;;;5050539;28;20545;-51
2022/11/22 07:44:48;;;;;;;4.13;2.20;;;15.10;64.60;16.30;98701.00;;;;5050768;28;20194;-51
2022/11/22 07:47:14;;;;;;;3.93;2.13;;;15.10;64.60;16.30;98703.00;;;;5050762;28;20487;-52
2022/11/22 07:49:40;;;;;;;3.07;1.83;;;15.10;64.60;16.30;98709.00;;;;5050128;28;20171;-52
2022/11/22 07:52:06;;;;;;;3.83;2.13;;;15.10;64.60;16.30;98714.00;;;;5050240;28;20628;-53
2022/11/22 07:54:31;;;;;;;4.27;1.90;;;15.10;64.60;16.20;98715.00;;;;5032428;28;20424;-52
2022/11/22 07:56:57;;;;;;;3.43;2.10;;;15.10;64.60;16.20;98704.00;;;;5054113;28;20666;-51
2022/11/22 07:59:24;;;;;;;2.50;1.83;;;15.10;64.60;16.20;98703.00;;;;5064583;28;20248;-52
2022/11/22 08:01:49;;;;;;;4.03;2.07;;;15.10;64.60;16.20;98713.00;;;;4942053;28;20265;-51
2022/11/22 08:04:15;;;;;;;2.30;1.93;;;15.10;64.60;16.20;98709.00;;;;5051638;28;20591;-53
2022/11/22 08:06:41;;;;;;;3.13;2.17;;;15.00;64.50;16.20;98712.00;;;;5069891;28;20194;-52
2022/11/22 08:09:06;;;;;;;2.33;2.03;;;15.10;64.60;16.20;98710.00;;;;5069027;28;20212;-51
2022/11/22 08:11:32;;;;;;;3.50;1.90;;;15.00;64.40;16.20;98717.00;;;;5069744;28;20189;-52
2022/11/22 08:13:58;;;;;;;2.83;1.93;;;15.10;64.60;16.20;98714.00;;;;5069121;28;20602;-51
2022/11/22 08:16:23;;;;;;;4.10;1.90;;;15.00;64.50;16.20;98714.00;;;;5069003;28;20380;-52
2022/11/22 08:18:49;;;;;;;3.13;1.93;;;15.00;64.50;16.10;98721.00;;;;5052846;28;20777;-51
2022/11/22 08:21:16;;;;;;;3.53;2.10;;;15.00;64.50;16.20;98725.00;;;;5048918;28;20186;-52
2022/11/22 08:23:42;;;;;;;2.87;1.90;;;15.00;64.50;16.10;98731.00;;;;5049297;28;20260;-53
2022/11/22 08:26:11;;;;;;;2.40;1.83;;;15.00;64.50;16.10;98725.00;;;;5048526;28;20193;-53
2022/11/22 08:28:38;;;;;;;2.83;1.90;;;15.00;64.50;16.10;98721.00;;;;5044266;28;20284;-53
2022/11/22 08:31:07;;;;;;;5.17;2.17;;;15.00;64.60;16.10;98734.00;;;;5068640;28;20246;-52
2022/11/22 08:33:33;;;;;;;7.13;2.30;;;15.00;64.70;16.10;98730.00;;;;5069018;28;20186;-51
2022/11/22 08:35:59;;;;;;;4.33;2.13;;;14.90;64.70;16.10;98742.00;;;;5050883;28;20255;-51
2022/11/22 08:38:25;;;;;;;4.03;2.10;;;15.00;65.00;16.10;98742.00;;;;5034520;28;20186;-51
2022/11/22 08:40:51;;;;;;;3.93;2.13;;;15.00;65.10;16.10;98739.00;;;;5048744;28;20167;-52
2022/11/22 08:43:17;;;;;;;3.50;2.10;;;15.10;65.10;16.20;98745.00;;;;5047777;28;20205;-51
2022/11/22 08:45:42;;;;;;;4.27;2.10;;;15.20;64.90;16.20;98742.00;;;;5047138;28;20202;-52
2022/11/22 08:48:08;;;;;;;4.30;1.90;;;15.30;64.70;16.20;98739.00;;;;5047603;28;20170;-52
2022/11/22 08:50:34;;;;;;;4.67;2.20;;;15.40;64.50;16.30;98742.00;;;;5048153;28;20178;-50
2022/11/22 08:53:00;;;;;;;4.53;2.17;;;15.50;64.50;16.40;98749.00;;;;5048626;28;20174;-52
2022/11/22 08:55:26;;;;;;;2.77;1.87;;;15.70;64.20;16.40;98740.00;;;;5043649;28;20372;-51
2022/11/22 08:57:52;;;;;;;3.33;2.10;;;15.80;64.00;16.50;98740.00;;;;5048594;28;20174;-50
2022/11/22 09:00:20;;;;;;;3.10;1.80;;;15.90;63.70;16.40;98675.00;;;;5039409;28;20185;-55
2022/11/22 09:02:45;;;;;;;2.77;2.10;;;16.10;62.90;16.70;98732.00;;;;4930152;28;20239;-51
2022/11/22 09:05:11;;;;;;;4.57;2.20;;;16.30;63.60;16.80;98743.00;;;;5068753;28;20185;-52
2022/11/22 09:07:37;;;;;;;7.97;2.00;;;16.40;63.50;16.90;98741.00;;;;5068832;28;20239;-52
2022/11/22 09:10:04;;;;;;;3.17;2.00;;;16.60;63.90;17.00;98753.00;;;;5062976;28;20174;-52
2022/11/22 09:12:30;;;;;;;3.03;2.00;;;16.60;63.90;17.10;98752.00;;;;5048917;28;20616;-51
2022/11/22 09:14:56;;;;;;;3.63;1.90;;;16.70;63.90;17.20;98745.00;;;;5046405;28;20206;-52
2022/11/22 09:17:21;;;;;;;5.03;2.23;;;16.80;63.70;17.20;98735.00;;;;5048153;28;20571;-52
2022/11/22 09:19:47;;;;;;;3.30;1.93;;;16.80;63.70;17.30;98678.00;;;;5047783;28;20177;-52
2022/11/22 09:22:13;;;;;;;4.00;2.10;;;16.80;63.70;17.30;98734.00;;;;5048084;28;20174;-51
2022/11/22 09:24:38;;;;;;;2.77;2.00;;;16.80;63.80;17.40;98751.00;;;;5047978;28;20237;-51
2022/11/22 09:27:04;;;;;;;2.97;2.00;;;16.80;63.90;17.40;98740.00;;;;5048276;28;20189;-51
2022/11/22 09:29:30;;;;;;;3.20;2.00;;;16.80;63.90;17.50;98744.00;;;;5030255;28;20617;-54
2022/11/22 09:31:56;;;;;;;2.97;1.90;;;16.80;64.00;17.50;98750.00;;;;5047668;28;20627;-51
2022/11/22 09:34:21;;;;;;;3.20;2.10;;;16.90;64.30;17.50;98745.00;;;;5047662;28;20212;-52
2022/11/22 09:36:47;;;;;;;4.00;2.00;;;16.80;64.20;17.50;98755.00;;;;5048027;28;20647;-51
2022/11/22 09:39:13;;;;;;;3.17;1.97;;;16.90;64.30;17.60;98746.00;;;;5046664;28;20228;-53
2022/11/22 09:42:03;;;;;;;3.17;1.90;;;16.90;64.40;17.30;98744.00;;;;5050357;28;20181;-52
2022/11/22 09:45:41;;;;;;;2.23;1.87;;;16.80;64.40;17.60;98769.00;;;;5036195;28;20664;-52
2022/11/22 09:48:46;;;;;;;3.77;1.70;;;16.80;64.50;17.60;98759.00;;;;4992339;28;20226;-51
2022/11/22 09:51:16;;;;;;;2.43;1.87;;;16.80;64.50;17.50;98763.00;;;;5006740;28;20207;-52
2022/11/22 09:54:02;;;;;;;2.17;1.80;;;16.80;64.70;17.30;98757.00;;;;5018197;28;20719;-52
2022/11/22 09:56:28;;;;;;;2.47;1.70;;;16.80;64.60;17.50;98764.00;;;;5051801;28;20200;-51
2022/11/22 09:59:09;;;;;;;2.37;1.80;;;16.80;64.70;17.50;98764.00;;;;5050992;28;20175;-52
2022/11/22 10:01:53;;;;;;;3.07;1.73;;;16.70;64.50;17.50;98752.00;;;;4919524;28;20544;-52
2022/11/22 10:04:46;;;;;;;3.07;1.80;;;16.70;64.60;17.50;98762.00;;;;5033779;28;20282;-53
2022/11/22 10:07:24;;;;;;;4.63;1.80;;;16.70;64.60;17.50;98755.00;;;;5021375;28;20169;-53
2022/11/22 10:10:21;;;;;;;3.17;1.93;;;16.70;64.70;17.50;98749.00;;;;5035215;28;20619;-52
2022/11/22 10:13:11;;;;;;;2.30;1.80;;;16.70;64.80;17.50;98746.00;;;;5014883;28;20331;-52
2022/11/22 10:16:13;;;;;;;2.43;1.93;;;16.70;64.80;17.50;98742.00;;;;5037048;28;20201;-52
2022/11/22 10:18:45;;;;;;;2.43;1.97;;;16.60;64.80;17.50;98661.00;;;;5018407;28;20190;-51
2022/11/22 10:21:14;;;;;;;3.00;1.80;;;16.60;64.80;17.50;98730.00;;;;5026737;28;20705;-53
2022/11/22 10:23:42;;;;;;;2.47;1.90;;;16.60;65.00;17.50;98732.00;;;;5071255;28;20202;-52
2022/11/22 10:26:33;;;;;;;3.63;1.80;;;16.60;65.30;17.50;98727.00;;;;5053803;28;20265;-52
2022/11/22 10:29:16;;;;;;;2.80;1.70;;;16.60;65.30;17.40;98721.00;;;;5054777;28;20634;-53
2022/11/22 10:32:09;;;;;;;2.07;1.67;;;16.60;65.10;17.40;98710.00;;;;5055278;28;20210;-52
2022/11/22 10:34:39;;;;;;;4.63;2.20;;;16.60;65.20;17.40;98712.00;;;;5071877;28;20661;-54
2022/11/22 10:37:44;;;;;;;3.87;1.67;;;16.60;65.60;17.40;98703.00;;;;5053478;28;20196;-51
2022/11/22 10:40:15;;;;;;;4.87;1.80;;;16.60;65.80;17.40;98700.00;;;;5072065;28;20634;-51
2022/11/22 10:43:15;;;;;;;3.67;1.90;;;16.50;65.50;17.40;98718.00;;;;5071415;28;20592;-52
2022/11/22 10:46:05;;;;;;;9.97;1.90;;;16.60;65.80;17.40;98715.00;;;;5053080;28;20239;-52
2022/11/22 10:48:57;;;;;;;2.93;1.90;;;16.50;65.60;17.30;98707.00;;;;5052572;28;20166;-52
2022/11/22 10:51:32;;;;;;;4.30;1.80;;;16.50;65.60;17.30;98701.00;;;;5035116;28;20544;-54
2022/11/22 10:54:30;;;;;;;2.10;1.83;;;16.50;65.60;17.30;98716.00;;;;5000572;28;20647;-52
2022/11/22 10:57:23;;;;;;;3.20;1.60;;;16.50;65.60;17.30;98697.00;;;;5049652;28;20162;-52
2022/11/22 11:00:24;;;;;;;5.03;1.80;;;16.40;65.50;17.30;98697.00;;;;5049516;28;20167;-52
2022/11/22 11:03:31;;;;;;;5.73;2.10;;;16.40;65.50;17.30;98702.00;;;;4985843;28;20420;-51
2022/11/22 11:06:52;;;;;;;2.00;1.80;;;16.40;66.80;17.30;98687.00;;;;5049572;28;20256;-52
2022/11/22 11:09:37;;;;;;;3.80;2.00;;;16.50;67.30;17.30;98664.00;;;;5004827;28;20190;-50
2022/11/22 11:12:11;;;;;;;2.90;1.70;;;16.50;66.20;17.10;98692.00;;;;5033178;28;20265;-53
2022/11/22 11:14:40;;;;;;;5.83;1.50;;;16.60;65.80;17.40;98685.00;;;;5049606;28;20535;-50
2022/11/22 11:17:06;;;;;;;6.17;2.07;;;16.70;65.70;17.40;98668.00;;;;5033492;28;20182;-53
2022/11/22 11:19:37;;;;;;;3.60;1.73;;;16.80;65.90;17.50;98666.00;;;;5050507;28;20220;-52